createdAt,value
2022-10-25T00:02:16.558Z,14.90
2022-10-25T00:04:45.779Z,14.90
2022-10-25T00:07:14.152Z,14.90
2022-10-25T00:09:42.590Z,14.90
2022-10-25T00:12:10.861Z,14.90
2022-10-25T00:14:39.180Z,14.90
2022-10-25T00:17:09.571Z,14.90
2022-10-25T00:19:37.832Z,15.00
2022-10-25T00:22:06.093Z,14.90
2022-10-25T00:24:34.454Z,15.00
2022-10-25T00:27:02.731Z,15.00
2022-10-25T00:29:32.301Z,14.90
2022-10-25T00:32:00.600Z,14.90
2022-10-25T00:34:30.331Z,14.90
2022-10-25T00:36:58.551Z,14.90
2022-10-25T00:39:26.943Z,14.90
2022-10-25T00:41:55.260Z,14.80
2022-10-25T00:44:47.008Z,14.80
2022-10-25T00:47:17.042Z,14.80
2022-10-25T00:49:48.372Z,14.70
2022-10-25T00:52:16.741Z,14.70
2022-10-25T00:54:47.651Z,14.60
2022-10-25T00:57:17.393Z,14.60
2022-10-25T00:59:46.984Z,14.50
2022-10-25T01:02:16.456Z,14.50
2022-10-25T01:04:45.271Z,14.50
2022-10-25T01:07:14.932Z,14.50
2022-10-25T01:09:44.060Z,14.40
2022-10-25T01:12:12.402Z,14.40
2022-10-25T01:14:43.081Z,14.40
2022-10-25T01:17:15.353Z,14.30
2022-10-25T01:20:01.592Z,14.30
2022-10-25T01:22:32.631Z,14.30
2022-10-25T01:25:24.681Z,14.30
2022-10-25T01:30:33.773Z,14.30
2022-10-25T01:33:07.431Z,14.20
2022-10-25T01:35:40.211Z,14.10
2022-10-25T01:38:18.391Z,14.10
2022-10-25T01:40:51.062Z,14.10
2022-10-25T01:43:24.571Z,14.00
2022-10-25T01:45:57.134Z,14.00
2022-10-25T01:48:28.902Z,14.00
2022-10-25T01:50:57.169Z,14.00
2022-10-25T01:53:25.450Z,14.00
2022-10-25T01:55:57.002Z,13.90
2022-10-25T01:58:29.817Z,13.90
2022-10-25T02:01:01.142Z,13.90
2022-10-25T02:03:35.181Z,13.80
2022-10-25T02:06:10.912Z,13.80
2022-10-25T02:08:42.292Z,13.80
2022-10-25T02:11:18.061Z,13.80
2022-10-25T02:13:52.809Z,13.70
2022-10-25T02:16:23.621Z,13.70
2022-10-25T02:18:55.901Z,13.80
2022-10-25T02:21:25.831Z,13.70
2022-10-25T02:23:54.823Z,13.70
2022-10-25T02:26:23.284Z,13.70
2022-10-25T02:28:52.394Z,13.70
2022-10-25T02:31:21.933Z,13.70
2022-10-25T02:33:50.542Z,13.70
2022-10-25T02:36:21.373Z,13.60
2022-10-25T02:38:50.004Z,13.60
2022-10-25T02:41:19.065Z,13.60
2022-10-25T02:43:47.375Z,13.60
2022-10-25T02:46:16.414Z,13.60
2022-10-25T02:48:44.824Z,13.60
2022-10-25T02:51:13.616Z,13.60
2022-10-25T02:53:43.638Z,13.60
2022-10-25T02:56:13.399Z,13.60
2022-10-25T02:58:42.775Z,13.60
2022-10-25T03:01:11.340Z,13.60
2022-10-25T03:03:39.944Z,13.60
2022-10-25T03:06:08.414Z,13.60
2022-10-25T03:08:36.706Z,13.60
2022-10-25T03:11:07.014Z,13.60
2022-10-25T03:13:35.521Z,13.60
2022-10-25T03:16:03.933Z,13.60
2022-10-25T03:18:32.395Z,13.60
2022-10-25T03:21:01.126Z,13.60
2022-10-25T03:23:29.716Z,13.60
2022-10-25T03:26:00.976Z,13.60
2022-10-25T03:28:31.957Z,13.60
2022-10-25T03:31:00.888Z,13.70
2022-10-25T03:36:02.440Z,13.60
2022-10-25T03:38:30.720Z,13.60
2022-10-25T03:40:59.005Z,13.60
2022-10-25T03:43:27.551Z,13.60
2022-10-25T03:46:00.066Z,13.60
2022-10-25T03:48:28.476Z,13.50
2022-10-25T03:50:56.745Z,13.50
2022-10-25T03:53:24.993Z,13.50
2022-10-25T03:55:53.324Z,13.50
2022-10-25T03:58:21.613Z,13.40
2022-10-25T04:00:49.874Z,13.40
2022-10-25T04:03:20.005Z,13.40
2022-10-25T04:05:48.248Z,13.40
2022-10-25T04:08:16.716Z,13.50
2022-10-25T04:10:45.319Z,13.40
2022-10-25T04:13:13.567Z,13.40
2022-10-25T04:15:41.797Z,13.30
2022-10-25T04:18:10.128Z,13.30
2022-10-25T04:20:39.981Z,13.30
2022-10-25T04:23:08.297Z,13.20
2022-10-25T04:25:36.626Z,13.20
2022-10-25T04:28:05.047Z,13.20
2022-10-25T04:30:36.567Z,13.20
2022-10-25T04:33:07.148Z,13.20
2022-10-25T04:35:35.389Z,13.20
2022-10-25T04:38:05.124Z,13.20
2022-10-25T04:40:33.666Z,13.20
2022-10-25T04:43:02.718Z,13.20
2022-10-25T04:45:31.185Z,13.10
2022-10-25T04:47:59.475Z,13.10
2022-10-25T04:50:27.826Z,13.10
2022-10-25T04:52:56.130Z,13.10
2022-10-25T04:55:25.916Z,13.10
2022-10-25T04:57:54.117Z,13.10
2022-10-25T05:00:22.365Z,13.10
2022-10-25T05:02:52.687Z,13.10
2022-10-25T05:05:21.186Z,13.00
2022-10-25T05:07:49.469Z,13.10
2022-10-25T05:10:18.386Z,13.10
2022-10-25T05:12:48.360Z,13.10
2022-10-25T05:15:16.940Z,13.10
2022-10-25T05:17:45.195Z,13.10
2022-10-25T05:20:13.446Z,13.10
2022-10-25T05:22:41.666Z,12.90
2022-10-25T05:25:10.325Z,13.10
2022-10-25T05:27:39.854Z,13.10
2022-10-25T05:30:10.436Z,13.10
2022-10-25T05:32:39.395Z,13.10
2022-10-25T05:35:08.005Z,13.10
2022-10-25T05:37:36.265Z,13.10
2022-10-25T05:40:04.677Z,13.00
2022-10-25T05:42:32.916Z,13.00
2022-10-25T05:45:01.254Z,13.00
2022-10-25T05:47:31.058Z,13.10
2022-10-25T05:49:59.269Z,13.10
2022-10-25T05:52:29.440Z,13.10
2022-10-25T05:54:57.651Z,13.10
2022-10-25T05:57:25.935Z,13.20
2022-10-25T05:59:54.199Z,13.30
2022-10-25T06:02:22.547Z,13.30
2022-10-25T06:04:52.613Z,13.30
2022-10-25T06:07:20.930Z,13.20
2022-10-25T06:09:49.182Z,13.20
2022-10-25T06:12:17.402Z,13.30
2022-10-25T06:14:45.736Z,13.30
2022-10-25T06:17:14.302Z,13.40
2022-10-25T06:19:42.592Z,13.40
2022-10-25T06:22:12.281Z,13.50
2022-10-25T06:24:40.553Z,13.60
2022-10-25T06:27:08.787Z,13.60
2022-10-25T06:29:37.038Z,13.70
2022-10-25T06:32:05.515Z,13.70
2022-10-25T06:34:33.778Z,13.70
2022-10-25T06:37:02.106Z,13.80
2022-10-25T06:39:31.747Z,13.80
2022-10-25T06:41:59.965Z,13.90
2022-10-25T06:44:28.256Z,13.90
2022-10-25T06:47:16.485Z,14.00
2022-10-25T06:49:44.788Z,14.00
2022-10-25T06:52:13.053Z,14.10
2022-10-25T06:54:42.696Z,14.20
2022-10-25T06:57:11.040Z,14.30
2022-10-25T06:59:39.343Z,14.40
2022-10-25T07:02:07.767Z,14.50
2022-10-25T07:04:36.129Z,14.50
2022-10-25T07:07:04.359Z,14.50
2022-10-25T07:09:32.649Z,14.50
2022-10-25T07:12:02.634Z,14.50
2022-10-25T07:14:30.841Z,14.50
2022-10-25T07:16:59.090Z,14.60
2022-10-25T07:19:27.698Z,14.70
2022-10-25T07:21:56.091Z,14.80
2022-10-25T07:24:24.502Z,14.90
2022-10-25T07:26:52.963Z,15.00
2022-10-25T07:29:22.681Z,15.00
2022-10-25T07:31:50.939Z,15.00
2022-10-25T07:34:20.539Z,15.00
2022-10-25T07:36:48.879Z,15.10
2022-10-25T07:39:17.589Z,15.10
2022-10-25T07:41:46.045Z,15.10
2022-10-25T07:44:18.330Z,15.10
2022-10-25T07:46:52.357Z,15.10
2022-10-25T07:49:20.619Z,15.10
2022-10-25T07:51:48.870Z,15.10
2022-10-25T07:54:17.209Z,15.10
2022-10-25T07:56:45.561Z,15.20
2022-10-25T07:59:13.819Z,15.20
2022-10-25T08:01:42.193Z,15.30
2022-10-25T08:04:11.978Z,15.30
2022-10-25T08:06:40.532Z,15.50
2022-10-25T08:09:15.098Z,15.60
2022-10-25T08:11:55.354Z,15.70
2022-10-25T08:16:57.150Z,15.90
2022-10-25T08:19:27.058Z,16.00
2022-10-25T08:21:55.722Z,16.10
2022-10-25T08:24:23.961Z,16.10
2022-10-25T08:26:52.688Z,16.20
2022-10-25T08:29:21.070Z,16.10
2022-10-25T08:31:49.819Z,16.10
2022-10-25T08:34:18.189Z,16.30
2022-10-25T08:36:49.667Z,16.50
2022-10-25T08:39:18.468Z,16.60
2022-10-25T08:41:49.884Z,16.70
2022-10-25T08:44:22.914Z,16.70
2022-10-25T08:46:58.866Z,16.70
2022-10-25T08:49:31.075Z,16.90
2022-10-25T08:52:01.910Z,16.90
2022-10-25T08:54:32.339Z,16.90
2022-10-25T08:57:15.396Z,16.90
2022-10-25T08:59:46.603Z,16.90
2022-10-25T09:02:18.960Z,16.80
2022-10-25T09:04:49.812Z,16.90
2022-10-25T09:07:42.089Z,17.00
2022-10-25T09:10:16.821Z,16.90
2022-10-25T09:12:50.571Z,16.90
2022-10-25T09:15:22.095Z,16.90
2022-10-25T09:17:51.286Z,17.00
2022-10-25T09:20:21.266Z,17.10
2022-10-25T09:22:52.952Z,17.10
2022-10-25T09:25:23.255Z,17.10
2022-10-25T09:27:56.273Z,17.10
2022-10-25T09:30:24.632Z,17.00
2022-10-25T09:32:54.354Z,17.00
2022-10-25T09:35:25.572Z,16.90
2022-10-25T09:37:57.889Z,16.80
2022-10-25T09:40:28.186Z,16.80
2022-10-25T09:42:57.923Z,16.70
2022-10-25T09:45:28.015Z,16.70
2022-10-25T09:48:01.656Z,16.70
2022-10-25T09:50:31.841Z,16.70
2022-10-25T09:53:06.716Z,16.70
2022-10-25T09:55:39.768Z,16.80
2022-10-25T09:58:10.707Z,16.80
2022-10-25T10:00:42.594Z,16.90
2022-10-25T10:03:13.536Z,17.10
2022-10-25T10:05:44.893Z,17.20
2022-10-25T10:08:14.694Z,17.30
2022-10-25T10:10:44.004Z,17.20
2022-10-25T10:13:15.766Z,17.10
2022-10-25T10:15:49.934Z,17.10
2022-10-25T10:18:26.956Z,17.00
2022-10-25T10:21:03.035Z,16.90
2022-10-25T10:23:34.368Z,16.80
2022-10-25T10:26:03.985Z,16.80
2022-10-25T10:28:32.837Z,16.80
2022-10-25T10:31:02.378Z,16.80
2022-10-25T10:33:31.941Z,16.80
2022-10-25T10:36:20.956Z,16.80
2022-10-25T10:38:50.883Z,16.80
2022-10-25T10:41:24.866Z,16.80
2022-10-25T10:43:53.734Z,16.70
2022-10-25T10:46:25.579Z,16.70
2022-10-25T10:48:55.446Z,16.70
2022-10-25T10:51:43.733Z,16.70
2022-10-25T10:54:21.425Z,16.60
2022-10-25T10:56:54.297Z,16.60
2022-10-25T10:59:35.004Z,16.70
2022-10-25T11:02:13.465Z,16.70
2022-10-25T11:04:52.195Z,16.70
2022-10-25T11:07:31.597Z,16.80
2022-10-25T11:10:18.400Z,16.90
2022-10-25T11:13:05.233Z,17.00
2022-10-25T11:15:34.904Z,17.20
2022-10-25T11:18:06.634Z,17.20
2022-10-25T11:20:41.783Z,17.30
2022-10-25T11:23:14.913Z,17.30
2022-10-25T11:25:45.042Z,17.30
2022-10-25T11:28:23.953Z,17.40
2022-10-25T11:30:57.579Z,17.50
2022-10-25T11:33:44.253Z,17.50
2022-10-25T11:36:27.572Z,17.50
2022-10-25T11:39:01.394Z,17.50
2022-10-25T11:41:36.375Z,17.50
2022-10-25T11:44:16.059Z,17.50
2022-10-25T11:46:47.353Z,17.50
2022-10-25T11:49:23.074Z,17.50
2022-10-25T11:51:56.872Z,17.40
2022-10-25T11:54:30.453Z,17.40
2022-10-25T11:57:05.515Z,17.50
2022-10-25T11:59:38.784Z,17.50
2022-10-25T12:02:18.108Z,17.60
2022-10-25T12:04:52.723Z,17.70
2022-10-25T12:07:24.753Z,17.80
2022-10-25T12:09:58.225Z,17.90
2022-10-25T12:12:28.224Z,17.90
2022-10-25T12:15:01.520Z,17.90
2022-10-25T12:17:31.816Z,18.10
2022-10-25T12:20:02.446Z,18.10
2022-10-25T12:22:33.093Z,18.30
2022-10-25T12:25:05.063Z,18.30
2022-10-25T12:27:34.265Z,18.40
2022-10-25T12:30:06.035Z,18.40
2022-10-25T12:32:37.392Z,18.40
2022-10-25T12:35:09.155Z,18.30
2022-10-25T12:37:38.707Z,18.10
2022-10-25T12:40:07.688Z,18.00
2022-10-25T12:42:39.495Z,18.00
2022-10-25T12:45:27.751Z,18.10
2022-10-25T12:48:02.726Z,18.00
2022-10-25T12:50:37.710Z,17.90
2022-10-25T12:53:25.309Z,17.90
2022-10-25T12:55:59.385Z,17.90
2022-10-25T12:58:34.040Z,17.90
2022-10-25T13:01:12.241Z,17.80
2022-10-25T13:03:50.332Z,17.70
2022-10-25T13:06:24.694Z,17.50
2022-10-25T13:08:54.057Z,17.40
2022-10-25T13:11:32.954Z,17.30
2022-10-25T13:14:01.993Z,17.30
2022-10-25T13:16:32.987Z,17.20
2022-10-25T13:19:25.881Z,17.20
2022-10-25T13:22:17.042Z,17.30
2022-10-25T13:24:46.925Z,17.30
2022-10-25T13:27:19.684Z,17.40
2022-10-25T13:29:49.814Z,17.30
2022-10-25T13:32:20.323Z,17.40
2022-10-25T13:34:48.714Z,17.30
2022-10-25T13:37:47.385Z,17.30
2022-10-25T13:40:34.403Z,17.30
2022-10-25T13:43:04.399Z,17.30
2022-10-25T13:45:40.736Z,17.30
2022-10-25T13:48:19.353Z,17.30
2022-10-25T13:50:48.614Z,17.30
2022-10-25T13:53:21.573Z,17.30
2022-10-25T13:55:57.585Z,17.30
2022-10-25T13:58:46.333Z,17.30
2022-10-25T14:01:38.333Z,17.30
2022-10-25T14:04:21.743Z,17.30
2022-10-25T14:06:50.026Z,17.40
2022-10-25T14:09:24.974Z,17.50
2022-10-25T14:11:55.593Z,17.50
2022-10-25T14:14:25.866Z,17.50
2022-10-25T14:16:57.044Z,17.50
2022-10-25T14:19:37.294Z,17.50
2022-10-25T14:22:08.404Z,17.60
2022-10-25T14:24:36.783Z,17.50
2022-10-25T14:27:05.276Z,17.50
2022-10-25T14:29:33.634Z,17.50
2022-10-25T14:32:01.982Z,17.40
2022-10-25T14:34:32.074Z,17.30
2022-10-25T14:37:00.404Z,17.30
2022-10-25T14:39:30.873Z,17.30
2022-10-25T14:42:00.143Z,17.30
2022-10-25T14:44:29.763Z,17.30
2022-10-25T14:46:58.532Z,17.20
2022-10-25T14:49:27.016Z,17.20
2022-10-25T14:51:58.986Z,17.20
2022-10-25T14:54:31.156Z,17.10
2022-10-25T14:57:00.344Z,16.90
2022-10-25T14:59:30.776Z,16.80
2022-10-25T15:02:00.782Z,16.80
2022-10-25T15:04:30.826Z,16.80
2022-10-25T15:07:00.813Z,16.60
2022-10-25T15:09:42.238Z,16.60
2022-10-25T15:12:18.105Z,16.50
2022-10-25T15:14:48.378Z,16.50
2022-10-25T15:17:19.175Z,16.40
2022-10-25T15:20:04.037Z,16.40
2022-10-25T15:22:35.124Z,16.30
2022-10-25T15:25:03.442Z,16.30
2022-10-25T15:27:36.076Z,16.30
2022-10-25T15:30:05.299Z,16.20
2022-10-25T15:32:34.593Z,16.10
2022-10-25T15:35:03.766Z,16.00
2022-10-25T15:37:33.495Z,15.90
2022-10-25T15:40:01.837Z,15.90
2022-10-25T15:42:30.243Z,15.80
2022-10-25T15:44:58.525Z,15.80
2022-10-25T15:47:32.483Z,15.70
2022-10-25T15:50:01.224Z,15.70
2022-10-25T15:52:29.594Z,15.70
2022-10-25T15:54:59.325Z,15.70
2022-10-25T15:57:28.593Z,15.60
2022-10-25T15:59:56.834Z,15.60
2022-10-25T16:02:28.465Z,15.50
2022-10-25T16:04:56.883Z,15.50
2022-10-25T16:07:25.150Z,15.50
2022-10-25T16:09:53.413Z,15.50
2022-10-25T16:12:24.924Z,15.50
2022-10-25T16:14:53.824Z,15.50
2022-10-25T16:17:22.074Z,15.40
2022-10-25T16:19:50.352Z,15.50
2022-10-25T16:22:18.747Z,15.40
2022-10-25T16:24:47.024Z,15.40
2022-10-25T16:27:15.495Z,15.40
2022-10-25T16:29:47.205Z,15.40
2022-10-25T16:32:15.424Z,15.30
2022-10-25T16:34:46.199Z,15.30
2022-10-25T16:37:14.504Z,15.30
2022-10-25T16:39:42.773Z,15.30
2022-10-25T16:42:30.513Z,15.30
2022-10-25T16:45:00.734Z,15.40
2022-10-25T16:47:29.493Z,15.30
2022-10-25T16:49:57.804Z,15.30
2022-10-25T16:52:26.013Z,15.20
2022-10-25T16:54:54.356Z,15.30
2022-10-25T16:57:22.655Z,15.20
2022-10-25T16:59:51.543Z,15.20
2022-10-25T17:02:21.891Z,15.20
2022-10-25T17:04:50.444Z,15.10
2022-10-25T17:07:18.866Z,15.10
2022-10-25T17:09:47.174Z,15.10
2022-10-25T17:12:15.734Z,15.00
2022-10-25T17:14:43.994Z,14.90
2022-10-25T17:17:12.279Z,14.90
2022-10-25T17:19:41.985Z,14.90
2022-10-25T17:22:10.454Z,14.80
2022-10-25T17:24:39.113Z,14.80
2022-10-25T17:27:09.504Z,14.80
2022-10-25T17:29:40.761Z,14.80
2022-10-25T17:32:11.713Z,14.70
2022-10-25T17:34:41.424Z,14.70
2022-10-25T17:37:11.624Z,14.50
2022-10-25T17:39:41.673Z,14.50
2022-10-25T17:42:11.132Z,14.40
2022-10-25T17:44:45.243Z,14.40
2022-10-25T17:47:15.387Z,14.40
2022-10-25T17:49:46.333Z,14.40
2022-10-25T17:52:14.584Z,14.30
2022-10-25T17:54:43.303Z,14.30
2022-10-25T17:57:14.629Z,14.10
2022-10-25T17:59:42.885Z,14.10
2022-10-25T18:02:11.734Z,14.00
2022-10-25T18:05:02.265Z,14.00
2022-10-25T18:07:36.733Z,13.90
2022-10-25T18:10:05.665Z,14.00
2022-10-25T18:12:34.393Z,13.90
2022-10-25T18:15:02.642Z,14.00
2022-10-25T18:17:30.937Z,14.00
2022-10-25T18:19:59.615Z,14.00
2022-10-25T18:22:28.754Z,14.00
2022-10-25T18:24:58.604Z,13.90
2022-10-25T18:27:31.744Z,13.90
2022-10-25T18:30:00.246Z,13.80
2022-10-25T18:32:33.595Z,13.70
2022-10-25T18:35:09.173Z,13.70
2022-10-25T18:37:37.431Z,13.70
2022-10-25T18:40:08.075Z,13.60
2022-10-25T18:42:37.205Z,13.60
2022-10-25T18:45:07.445Z,13.60
2022-10-25T18:47:36.264Z,13.60
2022-10-25T18:50:05.294Z,13.60
2022-10-25T18:52:36.299Z,13.60
2022-10-25T18:57:51.867Z,13.50
2022-10-25T19:00:22.699Z,13.50
2022-10-25T19:02:52.724Z,13.40
2022-10-25T19:05:21.005Z,13.40
2022-10-25T19:07:50.906Z,13.40
2022-10-25T19:10:21.156Z,13.30
2022-10-25T19:12:50.227Z,13.40
2022-10-25T19:15:18.558Z,13.40
2022-10-25T19:17:51.308Z,13.40
2022-10-25T19:20:19.869Z,13.40
2022-10-25T19:22:50.574Z,13.30
2022-10-25T19:25:23.793Z,13.40
2022-10-25T19:27:52.504Z,13.20
2022-10-25T19:30:23.256Z,13.20
2022-10-25T19:32:51.780Z,13.10
2022-10-25T19:35:20.975Z,13.10
2022-10-25T19:37:49.434Z,13.10
2022-10-25T19:40:18.344Z,13.20
2022-10-25T19:42:48.467Z,13.10
2022-10-25T19:45:16.933Z,13.10
2022-10-25T19:47:46.012Z,13.10
2022-10-25T19:50:14.497Z,13.10
2022-10-25T19:52:43.374Z,13.00
2022-10-25T19:55:12.050Z,12.90
2022-10-25T19:57:40.574Z,12.90
2022-10-25T20:00:14.503Z,12.80
2022-10-25T20:02:42.844Z,12.80
2022-10-25T20:07:44.541Z,12.80
2022-10-25T20:10:13.757Z,12.80
2022-10-25T20:12:43.709Z,12.80
2022-10-25T20:15:16.990Z,12.70
2022-10-25T20:17:45.806Z,12.80
2022-10-25T20:20:15.238Z,12.70
2022-10-25T20:22:43.689Z,12.80
2022-10-25T20:25:17.895Z,12.70
2022-10-25T20:27:47.185Z,12.70
2022-10-25T20:30:17.163Z,12.70
2022-10-25T20:32:49.293Z,12.70
2022-10-25T20:35:17.819Z,12.60
2022-10-25T20:37:48.070Z,12.60
2022-10-25T20:40:16.643Z,12.60
2022-10-25T20:42:48.625Z,12.50
2022-10-25T20:45:18.624Z,12.50
2022-10-25T20:47:55.673Z,12.40
2022-10-25T20:50:24.044Z,12.40
2022-10-25T20:53:12.858Z,12.40
2022-10-25T20:55:41.384Z,12.40
2022-10-25T20:58:13.456Z,12.40
2022-10-25T21:00:44.346Z,12.40
2022-10-25T21:03:14.396Z,12.40
2022-10-25T21:05:45.433Z,12.40
2022-10-25T21:08:23.172Z,12.40
2022-10-25T21:10:54.103Z,12.40
2022-10-25T21:13:34.387Z,12.40
2022-10-25T21:16:08.910Z,12.30
2022-10-25T21:18:37.975Z,12.30
2022-10-25T21:21:08.094Z,12.10
2022-10-25T21:23:36.755Z,12.20
2022-10-25T21:26:09.759Z,12.10
2022-10-25T21:28:54.435Z,12.10
2022-10-25T21:31:37.063Z,12.20
2022-10-25T21:34:21.024Z,12.10
2022-10-25T21:37:01.796Z,12.10
2022-10-25T21:39:43.594Z,12.00
2022-10-25T21:42:22.203Z,12.00
2022-10-25T21:44:58.213Z,12.00
2022-10-25T21:47:27.984Z,11.90
2022-10-25T21:49:57.084Z,11.90
2022-10-25T21:52:25.454Z,12.00
2022-10-25T21:54:54.614Z,12.00
2022-10-25T21:57:23.277Z,12.00
2022-10-25T21:59:52.218Z,11.90
2022-10-25T22:02:20.603Z,11.90
2022-10-25T22:04:51.673Z,11.80
2022-10-25T22:07:21.034Z,11.70
2022-10-25T22:09:52.003Z,11.60
2022-10-25T22:12:21.275Z,11.60
2022-10-25T22:14:50.145Z,11.60
2022-10-25T22:17:18.795Z,11.60
2022-10-25T22:19:47.540Z,11.60
2022-10-25T22:22:17.878Z,11.60
2022-10-25T22:24:46.504Z,11.60
2022-10-25T22:27:15.154Z,11.60
2022-10-25T22:30:00.276Z,11.60
2022-10-25T22:32:40.116Z,11.60
2022-10-25T22:35:08.683Z,11.60
2022-10-25T22:37:41.215Z,11.60
2022-10-25T22:40:12.734Z,11.60
2022-10-25T22:42:41.966Z,11.60
2022-10-25T22:45:13.155Z,11.50
2022-10-25T22:47:41.392Z,11.40
2022-10-25T22:50:09.991Z,11.40
2022-10-25T22:52:40.851Z,11.40
2022-10-25T22:55:11.228Z,11.40
2022-10-25T22:57:52.091Z,11.30
2022-10-25T23:00:22.308Z,11.30
2022-10-25T23:02:50.762Z,11.30
2022-10-25T23:05:19.202Z,11.30
2022-10-25T23:07:47.411Z,11.30
2022-10-25T23:10:18.312Z,11.30
2022-10-25T23:12:48.370Z,11.30
2022-10-25T23:15:17.038Z,11.20
2022-10-25T23:20:14.437Z,11.20
2022-10-25T23:22:42.643Z,11.20
2022-10-25T23:25:10.860Z,11.10
2022-10-25T23:27:40.534Z,11.10
2022-10-25T23:30:12.431Z,11.10
2022-10-25T23:32:41.524Z,11.10
2022-10-25T23:35:09.863Z,11.10
2022-10-25T23:37:38.123Z,11.10
2022-10-25T23:40:06.815Z,11.10
2022-10-25T23:42:35.137Z,11.00
2022-10-25T23:45:05.474Z,11.10
2022-10-25T23:47:34.873Z,11.00
2022-10-25T23:50:03.095Z,11.00
2022-10-25T23:52:31.400Z,11.00
2022-10-25T23:54:59.760Z,10.90
2022-10-25T23:57:28.020Z,10.90
2022-10-25T23:59:56.372Z,10.90
